createdAt,value
2023-03-12T00:00:25.772Z,96812.19
2023-03-12T00:02:30.663Z,96808.78
2023-03-12T00:04:34.620Z,96804.56
2023-03-12T00:06:37.987Z,96808.78
2023-03-12T00:08:40.651Z,96811.41
2023-03-12T00:10:43.205Z,96814.03
2023-03-12T00:12:45.750Z,96812.34
2023-03-12T00:14:48.324Z,96812.38
2023-03-12T00:16:50.864Z,96819.25
2023-03-12T00:18:56.566Z,96824.38
2023-03-12T00:20:59.237Z,96818.41
2023-03-12T00:23:02.030Z,96812.44
2023-03-12T00:25:06.309Z,96809.00
2023-03-12T00:27:08.864Z,96808.13
2023-03-12T00:29:11.547Z,96817.59
2023-03-12T00:31:17.245Z,96809.91
2023-03-12T00:33:19.835Z,96808.22
2023-03-12T00:35:23.775Z,96806.53
2023-03-12T00:37:26.882Z,96810.84
2023-03-12T00:39:29.479Z,96811.75
2023-03-12T00:41:32.260Z,96804.09
2023-03-12T00:43:34.782Z,96808.38
2023-03-12T00:45:37.512Z,96809.25
2023-03-12T00:47:40.066Z,96804.09
2023-03-12T00:49:42.865Z,96806.63
2023-03-12T00:51:46.825Z,96808.41
2023-03-12T00:53:49.368Z,96812.69
2023-03-12T00:55:52.000Z,96803.31
2023-03-12T00:57:54.560Z,96800.66
2023-03-12T00:59:57.136Z,96804.91
2023-03-12T01:01:59.718Z,96801.69
2023-03-12T01:04:02.321Z,96798.34
2023-03-12T01:06:05.554Z,96789.88
2023-03-12T01:08:10.662Z,96789.09
2023-03-12T01:10:16.576Z,96791.66
2023-03-12T01:12:19.144Z,96789.94
2023-03-12T01:14:21.767Z,96795.97
2023-03-12T01:16:28.118Z,96790.03
2023-03-12T01:18:30.787Z,96790.84
2023-03-12T01:20:33.387Z,96802.03
2023-03-12T01:22:36.663Z,96790.84
2023-03-12T01:24:40.699Z,96799.38
2023-03-12T01:26:43.285Z,96788.25
2023-03-12T01:28:46.088Z,96791.63
2023-03-12T01:30:48.781Z,96792.53
2023-03-12T01:32:53.198Z,96792.59
2023-03-12T01:34:55.792Z,96801.97
2023-03-12T01:36:58.359Z,96807.13
2023-03-12T01:39:01.057Z,96805.41
2023-03-12T01:41:05.293Z,96806.25
2023-03-12T01:43:28.264Z,96799.34
2023-03-12T01:46:07.100Z,96804.50
2023-03-12T01:48:11.125Z,96811.28
2023-03-12T01:50:13.666Z,96803.53
2023-03-12T01:52:20.920Z,96806.84
2023-03-12T01:54:26.771Z,96811.94
2023-03-12T01:56:35.678Z,96812.75
2023-03-12T01:58:41.447Z,96811.88
2023-03-12T02:00:44.208Z,96807.59
2023-03-12T02:02:47.753Z,96811.88
2023-03-12T02:04:53.730Z,96810.16
2023-03-12T02:07:03.972Z,96813.53
2023-03-12T02:09:08.703Z,96807.50
2023-03-12T02:11:11.516Z,96805.72
2023-03-12T02:13:15.586Z,96804.84
2023-03-12T02:15:18.547Z,96804.81
2023-03-12T02:17:21.390Z,96800.56
2023-03-12T02:19:33.580Z,96799.63
2023-03-12T02:21:37.521Z,96803.03
2023-03-12T02:23:47.055Z,96811.63
2023-03-12T02:25:53.337Z,96800.47
2023-03-12T02:27:57.973Z,96811.53
2023-03-12T02:30:01.366Z,96802.09
2023-03-12T02:32:06.653Z,96802.06
2023-03-12T02:34:09.577Z,96805.44
2023-03-12T02:36:12.245Z,96807.06
2023-03-12T02:38:40.947Z,96801.06
2023-03-12T02:40:46.875Z,96803.72
2023-03-12T02:42:53.059Z,96800.31
2023-03-12T02:44:55.644Z,96798.53
2023-03-12T02:47:00.797Z,96806.28
2023-03-12T02:49:03.664Z,96806.25
2023-03-12T02:51:06.657Z,96798.53
2023-03-12T02:53:09.292Z,96807.06
2023-03-12T02:55:12.018Z,96803.66
2023-03-12T02:57:14.564Z,96811.34
2023-03-12T02:59:20.706Z,96804.44
2023-03-12T03:01:23.389Z,96801.75
2023-03-12T03:03:25.987Z,96801.88
2023-03-12T03:05:28.601Z,96794.16
2023-03-12T03:07:31.156Z,96797.63
2023-03-12T03:09:33.753Z,96807.97
2023-03-12T03:11:39.123Z,96795.94
2023-03-12T03:13:41.683Z,96801.91
2023-03-12T03:15:45.593Z,96796.81
2023-03-12T03:17:48.208Z,96804.50
2023-03-12T03:19:51.206Z,96792.41
2023-03-12T03:21:53.757Z,96788.94
2023-03-12T03:23:56.383Z,96785.47
2023-03-12T03:25:59.555Z,96781.16
2023-03-12T03:28:02.128Z,96774.28
2023-03-12T03:30:05.832Z,96771.66
2023-03-12T03:32:09.809Z,96771.59
2023-03-12T03:34:12.457Z,96765.66
2023-03-12T03:36:15.264Z,96771.66
2023-03-12T03:38:17.837Z,96768.22
2023-03-12T03:40:20.695Z,96761.34
2023-03-12T03:42:23.583Z,96751.91
2023-03-12T03:44:26.410Z,96753.63
2023-03-12T03:46:29.050Z,96755.28
2023-03-12T03:48:33.431Z,96751.84
2023-03-12T03:50:35.987Z,96754.47
2023-03-12T03:52:38.671Z,96753.59
2023-03-12T03:54:41.211Z,96753.59
2023-03-12T03:56:43.759Z,96755.25
2023-03-12T03:58:46.734Z,96762.09
2023-03-12T04:00:49.308Z,96767.25
2023-03-12T04:02:51.843Z,96772.41
2023-03-12T04:05:00.812Z,96780.13
2023-03-12T04:07:03.362Z,96778.44
2023-03-12T04:09:06.070Z,96786.16
2023-03-12T04:11:11.799Z,96780.13
2023-03-12T04:13:14.326Z,96786.16
2023-03-12T04:15:17.184Z,96769.00
2023-03-12T04:17:20.021Z,96767.25
2023-03-12T04:19:22.587Z,96768.09
2023-03-12T04:21:26.458Z,96764.63
2023-03-12T04:23:29.061Z,96768.06
2023-03-12T04:25:31.860Z,96768.91
2023-03-12T04:27:34.890Z,96756.94
2023-03-12T04:29:39.152Z,96764.63
2023-03-12T04:31:41.752Z,96768.94
2023-03-12T04:33:44.343Z,96765.50
2023-03-12T04:35:51.815Z,96767.16
2023-03-12T04:37:55.738Z,96766.28
2023-03-12T04:39:58.295Z,96768.03
2023-03-12T04:42:01.041Z,96772.22
2023-03-12T04:44:03.721Z,96763.81
2023-03-12T04:46:07.255Z,96763.84
2023-03-12T04:48:09.808Z,96760.41
2023-03-12T04:50:13.200Z,96762.09
2023-03-12T04:52:17.580Z,96757.81
2023-03-12T04:54:22.386Z,96752.63
2023-03-12T04:56:25.351Z,96750.94
2023-03-12T04:58:28.208Z,96745.75
2023-03-12T05:00:30.895Z,96750.00
2023-03-12T05:02:33.464Z,96739.72
2023-03-12T05:04:36.055Z,96740.50
2023-03-12T05:06:38.598Z,96734.50
2023-03-12T05:08:41.160Z,96745.66
2023-03-12T05:10:46.074Z,96751.63
2023-03-12T05:12:48.610Z,96748.25
2023-03-12T05:14:51.361Z,96748.25
2023-03-12T05:16:54.342Z,96743.09
2023-03-12T05:18:56.901Z,96747.38
2023-03-12T05:21:01.006Z,96744.78
2023-03-12T05:23:03.541Z,96742.19
2023-03-12T05:25:06.930Z,96737.91
2023-03-12T05:27:11.590Z,96737.00
2023-03-12T05:29:14.141Z,96733.53
2023-03-12T05:31:17.710Z,96731.78
2023-03-12T05:33:20.263Z,96730.91
2023-03-12T05:35:22.813Z,96730.88
2023-03-12T05:37:25.458Z,96735.16
2023-03-12T05:39:28.152Z,96731.69
2023-03-12T05:41:31.201Z,96730.81
2023-03-12T05:43:35.307Z,96737.69
2023-03-12T05:45:37.858Z,96741.13
2023-03-12T05:47:40.400Z,96746.28
2023-03-12T05:49:44.166Z,96745.41
2023-03-12T05:51:47.688Z,96747.09
2023-03-12T05:53:50.362Z,96747.16
2023-03-12T05:55:52.896Z,96748.00
2023-03-12T05:57:55.551Z,96754.88
2023-03-12T05:59:59.491Z,96753.19
2023-03-12T06:02:02.090Z,96754.88
2023-03-12T06:04:05.042Z,96754.03
2023-03-12T06:06:07.679Z,96755.78
2023-03-12T06:08:10.236Z,96763.53
2023-03-12T06:10:12.968Z,96758.34
2023-03-12T06:12:15.586Z,96755.78
2023-03-12T06:14:18.273Z,96760.03
2023-03-12T06:16:24.254Z,96752.28
2023-03-12T06:18:26.853Z,96758.31
2023-03-12T06:20:29.469Z,96758.31
2023-03-12T06:22:32.029Z,96760.84
2023-03-12T06:24:34.620Z,96759.13
2023-03-12T06:26:37.237Z,96762.53
2023-03-12T06:28:40.828Z,96753.94
2023-03-12T06:30:43.372Z,96760.75
2023-03-12T06:32:47.330Z,96759.94
2023-03-12T06:34:51.002Z,96763.38
2023-03-12T06:36:53.579Z,96763.38
2023-03-12T06:38:57.310Z,96764.19
2023-03-12T06:41:02.586Z,96766.78
2023-03-12T06:43:05.101Z,96761.56
2023-03-12T06:45:08.778Z,96765.91
2023-03-12T06:47:11.311Z,96765.91
2023-03-12T06:49:15.295Z,96765.88
2023-03-12T06:51:18.815Z,96760.72
2023-03-12T06:53:22.195Z,96750.41
2023-03-12T06:55:24.733Z,96747.75
2023-03-12T06:57:27.264Z,96753.69
2023-03-12T06:59:29.841Z,96745.94
2023-03-12T07:01:32.454Z,96750.22
2023-03-12T07:03:35.268Z,96757.97
2023-03-12T07:05:39.174Z,96747.63
2023-03-12T07:07:41.962Z,96751.91
2023-03-12T07:09:44.511Z,96751.91
2023-03-12T07:11:47.104Z,96754.47
2023-03-12T07:13:49.657Z,96763.13
2023-03-12T07:15:52.251Z,96757.97
2023-03-12T07:17:54.828Z,96771.66
2023-03-12T07:19:57.364Z,96770.84
2023-03-12T07:22:01.412Z,96767.44
2023-03-12T07:24:06.841Z,96775.16
2023-03-12T07:26:09.408Z,96784.53
2023-03-12T07:28:13.629Z,96776.06
2023-03-12T07:30:16.526Z,96777.66
2023-03-12T07:32:19.155Z,96782.94
2023-03-12T07:34:21.872Z,96778.56
2023-03-12T07:36:24.571Z,96781.25
2023-03-12T07:38:28.753Z,96777.81
2023-03-12T07:40:31.529Z,96782.06
2023-03-12T07:42:34.142Z,96781.91
2023-03-12T07:44:37.628Z,96789.72
2023-03-12T07:46:40.514Z,96795.72
2023-03-12T07:48:44.405Z,96786.38
2023-03-12T07:50:47.308Z,96783.72
2023-03-12T07:52:49.951Z,96787.91
2023-03-12T07:54:56.320Z,96787.03
2023-03-12T07:56:59.018Z,96780.94
2023-03-12T07:59:01.883Z,96780.13
2023-03-12T08:01:04.896Z,96769.75
2023-03-12T08:03:07.741Z,96765.34
2023-03-12T08:05:10.957Z,96772.06
2023-03-12T08:07:13.771Z,96774.66
2023-03-12T08:09:16.456Z,96776.38
2023-03-12T08:11:20.347Z,96768.41
2023-03-12T08:13:24.401Z,96775.06
2023-03-12T08:15:27.015Z,96778.66
2023-03-12T08:17:29.581Z,96775.81
2023-03-12T08:19:32.121Z,96773.09
2023-03-12T08:21:34.635Z,96774.03
2023-03-12T08:23:37.286Z,96776.63
2023-03-12T08:25:39.868Z,96778.25
2023-03-12T08:27:43.739Z,96778.25
2023-03-12T08:29:46.321Z,96776.47
2023-03-12T08:32:03.828Z,96785.75
2023-03-12T08:34:07.444Z,96774.41
2023-03-12T08:36:10.718Z,96771.00
2023-03-12T08:38:13.372Z,96775.22
2023-03-12T08:40:15.933Z,96769.66
2023-03-12T08:42:18.483Z,96774.97
2023-03-12T08:44:22.387Z,96771.44
2023-03-12T08:46:24.958Z,96779.84
2023-03-12T08:48:28.232Z,96778.22
2023-03-12T08:50:32.054Z,96785.53
2023-03-12T08:52:34.593Z,96785.47
2023-03-12T08:54:37.150Z,96788.03
2023-03-12T08:56:42.426Z,96785.81
2023-03-12T08:58:45.039Z,96782.31
2023-03-12T09:00:48.893Z,96795.91
2023-03-12T09:02:52.407Z,96799.56
2023-03-12T09:04:55.020Z,96792.47
2023-03-12T09:06:57.600Z,96787.50
2023-03-12T09:09:04.840Z,96792.09
2023-03-12T09:11:09.112Z,96789.28
2023-03-12T09:13:11.663Z,96783.81
2023-03-12T09:15:14.228Z,96794.16
2023-03-12T09:17:18.138Z,96780.91
2023-03-12T09:19:21.055Z,96791.25
2023-03-12T09:21:23.624Z,96793.31
2023-03-12T09:23:27.075Z,96801.25
2023-03-12T09:25:29.582Z,96798.41
2023-03-12T09:27:32.135Z,96794.75
2023-03-12T09:29:34.813Z,96802.34
2023-03-12T09:31:37.406Z,96808.84
2023-03-12T09:33:41.390Z,96804.53
2023-03-12T09:35:44.000Z,96809.91
2023-03-12T09:37:49.443Z,96814.94
2023-03-12T09:39:52.630Z,96804.66
2023-03-12T09:41:55.221Z,96801.97
2023-03-12T09:44:01.213Z,96806.03
2023-03-12T09:46:05.206Z,96810.03
2023-03-12T09:48:14.176Z,96820.31
2023-03-12T09:50:23.679Z,96824.88
2023-03-12T09:52:31.972Z,96823.31
2023-03-12T09:54:39.370Z,96823.31
2023-03-12T09:56:42.288Z,96819.63
2023-03-12T09:58:48.134Z,96821.25
2023-03-12T10:00:52.304Z,96824.78
2023-03-12T10:03:09.652Z,96828.22
2023-03-12T10:05:19.357Z,96825.59
2023-03-12T10:07:30.921Z,96827.81
2023-03-12T10:09:50.249Z,96828.16
2023-03-12T10:12:00.567Z,96836.09
2023-03-12T10:14:18.046Z,96832.63
2023-03-12T10:16:39.675Z,96838.63
2023-03-12T10:18:58.313Z,96830.31
2023-03-12T10:21:18.692Z,96823.06
2023-03-12T10:23:35.699Z,96819.81
2023-03-12T10:25:47.419Z,96827.84
2023-03-12T10:27:51.153Z,96826.06
2023-03-12T10:29:54.856Z,96830.97
2023-03-12T10:32:01.726Z,96822.69
2023-03-12T10:34:16.400Z,96828.47
2023-03-12T10:36:21.650Z,96826.31
2023-03-12T10:38:30.558Z,96821.69
2023-03-12T10:40:35.509Z,96835.91
2023-03-12T10:42:38.043Z,96841.97
2023-03-12T10:44:40.932Z,96838.63
2023-03-12T10:46:55.081Z,96844.13
2023-03-12T10:49:29.413Z,96838.75
2023-03-12T10:51:31.991Z,96846.41
2023-03-12T10:53:37.121Z,96865.56
2023-03-12T10:55:40.746Z,96849.63
2023-03-12T10:57:43.681Z,96846.97
2023-03-12T10:59:48.529Z,96855.91
2023-03-12T11:01:53.663Z,96859.91
2023-03-12T11:04:15.982Z,96862.81
2023-03-12T11:06:23.575Z,96869.50
2023-03-12T11:08:29.264Z,96864.22
2023-03-12T11:10:46.135Z,96864.06
2023-03-12T11:12:58.191Z,96875.50
2023-03-12T11:15:00.882Z,96872.28
2023-03-12T11:17:21.340Z,96879.19
2023-03-12T11:19:30.148Z,96875.19
2023-03-12T11:21:36.930Z,96879.44
2023-03-12T11:23:43.099Z,96875.22
2023-03-12T11:25:54.162Z,96871.78
2023-03-12T11:28:00.295Z,96881.97
2023-03-12T11:30:05.812Z,96880.03
2023-03-12T11:32:18.086Z,96872.22
2023-03-12T11:34:24.470Z,96871.38
2023-03-12T11:36:38.278Z,96870.53
2023-03-12T11:38:44.428Z,96876.84
2023-03-12T11:41:00.145Z,96874.38
2023-03-12T11:43:43.130Z,96880.00
2023-03-12T11:45:59.573Z,96881.63
2023-03-12T11:48:18.797Z,96875.94
2023-03-12T11:50:29.337Z,96870.63
2023-03-12T11:52:40.309Z,96868.75
2023-03-12T11:55:08.675Z,96868.38
2023-03-12T11:57:18.824Z,96867.13
2023-03-12T11:59:35.497Z,96855.38
2023-03-12T12:01:51.754Z,96857.53
2023-03-12T12:04:22.059Z,96866.91
2023-03-12T12:06:31.658Z,96855.78
2023-03-12T12:08:46.144Z,96865.09
2023-03-12T12:11:01.352Z,96848.56
2023-03-12T12:13:12.065Z,96861.53
2023-03-12T12:15:24.887Z,96857.19
2023-03-12T12:17:39.801Z,96861.19
2023-03-12T12:19:58.345Z,96847.72
2023-03-12T12:22:11.844Z,96839.25
2023-03-12T12:24:27.937Z,96839.38
2023-03-12T12:26:39.794Z,96834.00
2023-03-12T12:29:06.426Z,96830.56
2023-03-12T12:31:21.208Z,96837.31
2023-03-12T12:33:37.891Z,96837.72
2023-03-12T12:35:43.018Z,96829.25
2023-03-12T12:37:51.435Z,96812.53
2023-03-12T12:40:01.032Z,96824.19
2023-03-12T12:42:07.019Z,96814.41
2023-03-12T12:44:15.795Z,96810.78
2023-03-12T12:46:22.010Z,96809.63
2023-03-12T12:48:28.473Z,96812.22
2023-03-12T12:50:35.902Z,96803.78
2023-03-12T12:52:38.581Z,96805.69
2023-03-12T12:54:52.016Z,96797.81
2023-03-12T12:57:02.852Z,96790.50
2023-03-12T12:59:26.037Z,96810.09
2023-03-12T13:01:28.715Z,96807.72
2023-03-12T13:03:33.060Z,96802.44
2023-03-12T13:05:47.665Z,96796.44
2023-03-12T13:07:50.192Z,96806.03
2023-03-12T13:09:54.534Z,96808.00
2023-03-12T13:11:58.033Z,96813.22
2023-03-12T13:14:23.635Z,96812.34
2023-03-12T13:16:33.679Z,96812.94
2023-03-12T13:18:38.845Z,96794.69
2023-03-12T13:20:48.895Z,96806.06
2023-03-12T13:23:01.942Z,96800.16
2023-03-12T13:25:21.989Z,96799.91
2023-03-12T13:27:26.758Z,96815.38
2023-03-12T13:29:41.974Z,96807.31
2023-03-12T13:31:44.764Z,96815.47
2023-03-12T13:33:50.519Z,96792.25
2023-03-12T13:36:12.900Z,96812.28
2023-03-12T13:38:35.137Z,96815.53
2023-03-12T13:41:04.002Z,96829.13
2023-03-12T13:43:13.295Z,96816.94
2023-03-12T13:45:30.446Z,96811.31
2023-03-12T13:47:38.914Z,96818.84
2023-03-12T13:49:44.980Z,96828.34
2023-03-12T13:51:56.342Z,96834.34
2023-03-12T13:54:02.311Z,96834.75
2023-03-12T13:56:08.840Z,96830.81
2023-03-12T13:58:21.391Z,96833.34
2023-03-12T14:00:30.052Z,96832.44
2023-03-12T14:02:37.596Z,96824.78
2023-03-12T14:04:42.778Z,96831.38
2023-03-12T14:06:59.238Z,96826.38
2023-03-12T14:09:15.169Z,96826.16
2023-03-12T14:11:25.021Z,96836.47
2023-03-12T14:13:55.191Z,96836.31
2023-03-12T14:16:07.139Z,96843.06
2023-03-12T14:18:16.803Z,96836.81
2023-03-12T14:20:23.076Z,96837.53
2023-03-12T14:22:26.556Z,96845.09
2023-03-12T14:24:33.385Z,96839.88
2023-03-12T14:26:37.635Z,96842.66
2023-03-12T14:28:42.956Z,96841.41
2023-03-12T14:30:53.319Z,96838.22
2023-03-12T14:33:01.472Z,96840.44
2023-03-12T14:35:18.035Z,96850.41
2023-03-12T14:37:25.066Z,96843.94
2023-03-12T14:39:32.896Z,96847.63
2023-03-12T14:41:40.749Z,96851.63
2023-03-12T14:43:46.298Z,96856.91
2023-03-12T14:45:51.844Z,96860.59
2023-03-12T14:47:56.353Z,96849.28
2023-03-12T14:50:00.265Z,96842.16
2023-03-12T14:52:02.950Z,96848.72
2023-03-12T14:54:05.731Z,96852.13
2023-03-12T14:56:13.554Z,96854.81
2023-03-12T14:58:19.938Z,96849.13
2023-03-12T15:00:24.690Z,96845.69
2023-03-12T15:02:28.632Z,96845.91
2023-03-12T15:04:34.368Z,96840.91
2023-03-12T15:06:43.889Z,96837.09
2023-03-12T15:08:46.975Z,96838.72
2023-03-12T15:10:51.028Z,96831.28
2023-03-12T15:12:57.443Z,96839.50
2023-03-12T15:15:04.789Z,96846.22
2023-03-12T15:17:08.608Z,96842.34
2023-03-12T15:19:13.989Z,96848.78
2023-03-12T15:21:17.700Z,96848.50
2023-03-12T15:23:24.182Z,96844.13
2023-03-12T15:25:29.023Z,96841.59
2023-03-12T15:27:34.165Z,96839.72
2023-03-12T15:29:42.481Z,96836.41
2023-03-12T15:31:47.253Z,96831.72
2023-03-12T15:34:02.138Z,96824.88
2023-03-12T15:36:08.921Z,96834.88
2023-03-12T15:38:16.934Z,96833.19
2023-03-12T15:40:24.015Z,96829.81
2023-03-12T15:42:27.921Z,96837.03
2023-03-12T15:44:37.490Z,96843.94
2023-03-12T15:46:40.255Z,96825.50
2023-03-12T15:48:50.265Z,96831.19
2023-03-12T15:50:52.877Z,96845.34
2023-03-12T15:53:05.909Z,96828.72
2023-03-12T15:55:27.001Z,96834.94
2023-03-12T15:57:30.366Z,96845.13
2023-03-12T15:59:32.986Z,96833.25
2023-03-12T16:01:46.482Z,96845.50
2023-03-12T16:03:49.025Z,96838.09
2023-03-12T16:05:52.320Z,96837.63
2023-03-12T16:07:55.078Z,96837.03
2023-03-12T16:09:57.736Z,96832.28
2023-03-12T16:12:01.647Z,96838.34
2023-03-12T16:14:07.464Z,96835.69
2023-03-12T16:16:12.857Z,96836.03
2023-03-12T16:18:17.240Z,96844.06
2023-03-12T16:20:20.162Z,96831.59
2023-03-12T16:22:22.770Z,96828.19
2023-03-12T16:24:25.316Z,96836.38
2023-03-12T16:26:27.839Z,96833.53
2023-03-12T16:28:32.130Z,96825.75
2023-03-12T16:30:36.722Z,96821.94
2023-03-12T16:32:39.335Z,96835.41
2023-03-12T16:34:42.383Z,96835.81
2023-03-12T16:36:44.932Z,96830.13
2023-03-12T16:38:47.881Z,96827.78
2023-03-12T16:40:52.769Z,96823.38
2023-03-12T16:42:55.845Z,96826.75
2023-03-12T16:44:59.948Z,96829.00
2023-03-12T16:47:02.616Z,96828.50
2023-03-12T16:49:05.296Z,96835.41
2023-03-12T16:51:15.000Z,96830.75
2023-03-12T16:53:17.865Z,96829.47
2023-03-12T16:55:21.215Z,96818.41
2023-03-12T16:57:28.590Z,96816.38
2023-03-12T16:59:33.195Z,96819.41
2023-03-12T17:01:37.628Z,96810.41
2023-03-12T17:03:43.502Z,96814.91
2023-03-12T17:05:49.086Z,96814.19
2023-03-12T17:07:51.778Z,96815.94
2023-03-12T17:09:54.300Z,96805.31
2023-03-12T17:11:56.906Z,96807.97
2023-03-12T17:14:02.997Z,96818.34
2023-03-12T17:16:05.976Z,96809.00
2023-03-12T17:18:12.475Z,96812.34
2023-03-12T17:20:17.846Z,96809.06
2023-03-12T17:22:23.084Z,96810.78
2023-03-12T17:24:27.973Z,96814.00
2023-03-12T17:26:30.560Z,96821.94
2023-03-12T17:28:33.361Z,96823.28
2023-03-12T17:30:36.766Z,96821.59
2023-03-12T17:32:39.949Z,96825.44
2023-03-12T17:34:43.904Z,96829.75
2023-03-12T17:36:46.435Z,96817.34
2023-03-12T17:38:50.837Z,96832.31
2023-03-12T17:40:54.451Z,96834.50
2023-03-12T17:42:57.813Z,96829.56
2023-03-12T17:45:00.347Z,96843.00
2023-03-12T17:47:03.171Z,96831.72
2023-03-12T17:49:05.940Z,96848.53
2023-03-12T17:51:11.814Z,96851.25
2023-03-12T17:53:16.083Z,96852.34
2023-03-12T17:55:18.680Z,96849.16
2023-03-12T17:57:21.250Z,96854.59
2023-03-12T17:59:23.973Z,96857.34
2023-03-12T18:01:26.559Z,96869.72
2023-03-12T18:03:29.253Z,96878.44
2023-03-12T18:05:31.825Z,96881.69
2023-03-12T18:07:35.816Z,96871.59
2023-03-12T18:09:38.802Z,96870.78
2023-03-12T18:11:41.349Z,96866.69
2023-03-12T18:13:43.891Z,96863.41
2023-03-12T18:15:52.881Z,96864.22
2023-03-12T18:17:56.776Z,96868.69
2023-03-12T18:19:59.316Z,96871.34
2023-03-12T18:22:01.871Z,96874.03
2023-03-12T18:24:14.186Z,96870.41
2023-03-12T18:26:19.249Z,96862.38
2023-03-12T18:28:22.560Z,96869.75
2023-03-12T18:30:25.079Z,96863.81
2023-03-12T18:32:27.651Z,96861.06
2023-03-12T18:34:30.258Z,96869.41
2023-03-12T18:36:32.832Z,96868.88
2023-03-12T18:38:35.590Z,96867.06
2023-03-12T18:40:39.658Z,96868.75
2023-03-12T18:42:44.212Z,96868.88
2023-03-12T18:44:46.811Z,96874.88
2023-03-12T18:46:50.802Z,96878.38
2023-03-12T18:48:53.713Z,96885.44
2023-03-12T18:50:56.271Z,96884.56
2023-03-12T18:52:58.926Z,96890.72
2023-03-12T18:55:01.553Z,96881.34
2023-03-12T18:57:05.925Z,96888.38
2023-03-12T18:59:09.663Z,96885.09
2023-03-12T19:01:13.849Z,96887.75
2023-03-12T19:03:16.428Z,96884.44
2023-03-12T19:05:19.249Z,96882.72
2023-03-12T19:07:21.800Z,96886.84
2023-03-12T19:09:24.320Z,96880.06
2023-03-12T19:11:27.588Z,96875.84
2023-03-12T19:13:31.454Z,96863.63
2023-03-12T19:15:34.015Z,96868.50
2023-03-12T19:17:36.598Z,96862.75
2023-03-12T19:19:39.756Z,96862.75
2023-03-12T19:21:44.419Z,96873.47
2023-03-12T19:23:46.992Z,96872.63
2023-03-12T19:25:49.681Z,96884.84
2023-03-12T19:27:52.275Z,96873.72
2023-03-12T19:29:56.154Z,96874.31
2023-03-12T19:31:58.772Z,96880.56
2023-03-12T19:34:01.357Z,96882.03
2023-03-12T19:36:04.516Z,96879.44
2023-03-12T19:38:07.166Z,96879.16
2023-03-12T19:40:10.979Z,96882.69
2023-03-12T19:42:13.736Z,96881.50
2023-03-12T19:44:16.353Z,96872.81
2023-03-12T19:46:20.395Z,96870.41
2023-03-12T19:48:25.115Z,96878.13
2023-03-12T19:50:27.734Z,96878.38
2023-03-12T19:52:30.532Z,96868.94
2023-03-12T19:54:33.732Z,96871.22
2023-03-12T19:56:36.313Z,96874.16
2023-03-12T19:58:38.887Z,96877.63
2023-03-12T20:00:42.160Z,96887.81
2023-03-12T20:02:46.570Z,96894.91
2023-03-12T20:04:49.291Z,96895.78
2023-03-12T20:06:51.884Z,96898.28
2023-03-12T20:08:54.469Z,96894.41
2023-03-12T20:11:02.847Z,96901.50
2023-03-12T20:13:05.611Z,96903.50
2023-03-12T20:15:09.351Z,96898.41
2023-03-12T20:17:12.202Z,96897.44
2023-03-12T20:19:16.148Z,96900.91
2023-03-12T20:21:18.688Z,96899.44
2023-03-12T20:23:21.230Z,96901.78
2023-03-12T20:25:23.841Z,96893.25
2023-03-12T20:27:26.862Z,96891.69
2023-03-12T20:29:29.403Z,96893.44
2023-03-12T20:31:32.322Z,96890.97
2023-03-12T20:33:34.939Z,96893.66
2023-03-12T20:35:39.523Z,96887.56
2023-03-12T20:37:42.700Z,96883.94
2023-03-12T20:39:45.251Z,96882.59
2023-03-12T20:41:49.557Z,96885.19
2023-03-12T20:43:56.331Z,96880.91
2023-03-12T20:45:58.917Z,96878.44
2023-03-12T20:48:02.003Z,96879.22
2023-03-12T20:50:04.971Z,96877.63
2023-03-12T20:52:08.887Z,96876.84
2023-03-12T20:54:11.859Z,96880.38
2023-03-12T20:56:14.429Z,96876.91
2023-03-12T20:58:16.954Z,96876.06
2023-03-12T21:00:21.486Z,96881.31
2023-03-12T21:02:25.081Z,96876.06
2023-03-12T21:04:27.663Z,96874.44
2023-03-12T21:06:30.273Z,96875.38
2023-03-12T21:08:34.771Z,96878.91
2023-03-12T21:10:38.536Z,96873.75
2023-03-12T21:12:41.329Z,96878.03
2023-03-12T21:14:43.997Z,96883.06
2023-03-12T21:16:46.600Z,96888.25
2023-03-12T21:18:49.189Z,96883.91
2023-03-12T21:20:52.287Z,96889.72
2023-03-12T21:22:54.820Z,96890.38
2023-03-12T21:24:58.988Z,96885.16
2023-03-12T21:27:01.695Z,96890.19
2023-03-12T21:29:04.573Z,96880.78
2023-03-12T21:31:08.404Z,96880.91
2023-03-12T21:33:11.060Z,96883.50
2023-03-12T21:35:13.676Z,96880.13
2023-03-12T21:37:16.471Z,96874.78
2023-03-12T21:39:19.229Z,96870.56
2023-03-12T21:41:23.680Z,96877.56
2023-03-12T21:43:30.132Z,96874.91
2023-03-12T21:45:32.884Z,96864.50
2023-03-12T21:47:37.051Z,96866.31
2023-03-12T21:49:39.598Z,96869.03
2023-03-12T21:51:42.121Z,96869.03
2023-03-12T21:53:44.790Z,96865.66
2023-03-12T21:55:55.580Z,96873.28
2023-03-12T21:57:59.454Z,96862.03
2023-03-12T22:00:02.272Z,96860.03
2023-03-12T22:02:04.994Z,96858.88
2023-03-12T22:04:07.610Z,96853.94
2023-03-12T22:06:11.560Z,96853.69
2023-03-12T22:08:14.092Z,96854.03
2023-03-12T22:10:17.371Z,96854.09
2023-03-12T22:12:19.912Z,96854.91
2023-03-12T22:14:25.150Z,96851.44
2023-03-12T22:16:27.918Z,96851.03
2023-03-12T22:18:30.613Z,96843.88
2023-03-12T22:20:34.645Z,96847.56
2023-03-12T22:22:37.192Z,96845.94
2023-03-12T22:24:39.741Z,96835.66
2023-03-12T22:26:44.488Z,96828.69
2023-03-12T22:28:50.631Z,96824.28
2023-03-12T22:30:59.600Z,96817.63
2023-03-12T22:33:02.298Z,96812.41
2023-03-12T22:35:05.271Z,96809.03
2023-03-12T22:37:08.126Z,96807.28
2023-03-12T22:39:10.673Z,96801.34
2023-03-12T22:41:15.467Z,96797.13
2023-03-12T22:43:18.010Z,96789.38
2023-03-12T22:45:20.889Z,96792.47
2023-03-12T22:47:25.213Z,96784.34
2023-03-12T22:49:29.342Z,96776.84
2023-03-12T22:51:33.415Z,96776.97
2023-03-12T22:53:36.573Z,96769.28
2023-03-12T22:55:39.160Z,96766.75
2023-03-12T22:57:41.790Z,96765.97
2023-03-12T22:59:44.314Z,96753.88
2023-03-12T23:01:46.904Z,96747.72
2023-03-12T23:03:51.419Z,96745.19
2023-03-12T23:05:53.952Z,96741.66
2023-03-12T23:07:56.592Z,96731.25
2023-03-12T23:09:59.266Z,96724.16
2023-03-12T23:12:01.862Z,96728.38
2023-03-12T23:14:04.413Z,96727.63
2023-03-12T23:16:09.903Z,96734.44
2023-03-12T23:18:12.514Z,96728.22
2023-03-12T23:20:16.891Z,96726.41
2023-03-12T23:22:19.471Z,96720.34
2023-03-12T23:24:22.113Z,96724.44
2023-03-12T23:26:27.315Z,96719.63
2023-03-12T23:28:31.284Z,96724.25
2023-03-12T23:30:34.735Z,96727.34
2023-03-12T23:32:37.314Z,96732.19
2023-03-12T23:34:39.875Z,96728.72
2023-03-12T23:36:44.426Z,96733.56
2023-03-12T23:38:48.457Z,96740.88
2023-03-12T23:40:51.053Z,96744.81
2023-03-12T23:42:53.593Z,96745.84
2023-03-12T23:44:56.245Z,96748.66
2023-03-12T23:46:58.774Z,96745.25
2023-03-12T23:49:02.627Z,96738.41
2023-03-12T23:51:09.239Z,96735.94
2023-03-12T23:53:13.133Z,96740.50
2023-03-12T23:55:17.377Z,96743.94
2023-03-12T23:57:19.944Z,96748.38
2023-03-12T23:59:22.692Z,96744.91
